createdAt,value
2019-05-06T00:00:34.496Z,4.47
2019-05-06T00:03:05.144Z,5.17
2019-05-06T00:05:35.681Z,3.62
2019-05-06T00:08:06.075Z,6.17
2019-05-06T00:10:36.847Z,5.05
2019-05-06T00:13:07.258Z,5.62
2019-05-06T00:15:39.200Z,5.58
2019-05-06T00:18:11.069Z,6.25
2019-05-06T00:20:43.719Z,6.28
2019-05-06T00:23:18.150Z,5.50
2019-05-06T00:25:53.552Z,5.65
2019-05-06T00:28:25.803Z,6.05
2019-05-06T00:31:12.204Z,5.75
2019-05-06T00:33:34.101Z,5.62
2019-05-06T00:36:04.861Z,5.60
2019-05-06T00:38:36.401Z,5.47
2019-05-06T00:41:25.156Z,6.00
2019-05-06T00:43:57.203Z,6.72
2019-05-06T00:46:27.569Z,5.97
2019-05-06T00:48:57.971Z,5.33
2019-05-06T00:51:28.445Z,6.60
2019-05-06T00:54:04.002Z,5.67
2019-05-06T00:56:34.637Z,5.75
2019-05-06T00:59:05.056Z,6.12
2019-05-06T01:01:36.981Z,4.03
2019-05-06T01:04:07.449Z,6.55
2019-05-06T01:06:37.834Z,6.78
2019-05-06T01:09:10.811Z,5.58
2019-05-06T01:11:44.904Z,6.70
2019-05-06T01:14:17.141Z,5.70
2019-05-06T01:16:47.520Z,5.97
2019-05-06T01:19:17.928Z,5.50
2019-05-06T01:21:48.317Z,5.37
2019-05-06T01:24:18.909Z,5.50
2019-05-06T01:26:50.739Z,6.03
2019-05-06T01:29:21.246Z,5.35
2019-05-06T01:31:54.230Z,5.92
2019-05-06T01:34:25.377Z,5.50
2019-05-06T01:36:55.754Z,4.53
2019-05-06T01:39:27.814Z,4.53
2019-05-06T01:42:08.790Z,4.78
2019-05-06T01:44:39.292Z,4.58
2019-05-06T01:47:11.962Z,5.35
2019-05-06T01:49:45.223Z,4.80
2019-05-06T01:52:15.591Z,4.40
2019-05-06T01:54:46.003Z,3.35
2019-05-06T01:57:16.362Z,4.05
2019-05-06T01:59:46.903Z,4.80
2019-05-06T02:02:17.501Z,4.58
2019-05-06T02:04:47.966Z,4.92
2019-05-06T02:07:18.355Z,5.10
2019-05-06T02:09:48.752Z,4.40
2019-05-06T02:12:19.140Z,5.25
2019-05-06T02:14:49.708Z,4.62
2019-05-06T02:17:20.123Z,4.87
2019-05-06T02:19:50.527Z,4.65
2019-05-06T02:22:24.113Z,4.72
2019-05-06T02:24:56.261Z,4.75
2019-05-06T02:27:27.011Z,4.72
2019-05-06T02:29:59.101Z,5.45
2019-05-06T02:32:35.985Z,4.87
2019-05-06T02:35:08.300Z,5.40
2019-05-06T02:37:40.291Z,5.10
2019-05-06T02:40:24.878Z,5.47
2019-05-06T02:42:55.044Z,5.30
2019-05-06T02:45:26.047Z,4.92
2019-05-06T02:47:58.055Z,4.10
2019-05-06T02:50:45.327Z,5.30
2019-05-06T02:53:17.363Z,5.28
2019-05-06T02:55:47.845Z,5.50
2019-05-06T02:58:19.780Z,5.28
2019-05-06T03:00:49.919Z,5.00
2019-05-06T03:03:23.278Z,5.12
2019-05-06T03:05:53.481Z,4.80
2019-05-06T03:08:25.552Z,5.05
2019-05-06T03:10:56.020Z,5.00
2019-05-06T03:13:27.006Z,5.30
2019-05-06T03:15:58.891Z,4.90
2019-05-06T03:18:29.256Z,4.45
2019-05-06T03:21:03.674Z,4.78
2019-05-06T03:23:44.203Z,5.42
2019-05-06T03:26:14.691Z,4.50
2019-05-06T03:28:45.108Z,5.08
2019-05-06T03:31:17.818Z,3.85
2019-05-06T03:34:05.910Z,5.28
2019-05-06T03:36:27.172Z,4.80
2019-05-06T03:38:53.606Z,5.22
2019-05-06T03:41:26.744Z,4.60
2019-05-06T03:43:56.670Z,5.37
2019-05-06T03:46:45.043Z,4.97
2019-05-06T03:49:15.423Z,5.10
2019-05-06T03:51:45.830Z,5.35
2019-05-06T03:54:17.881Z,4.92
2019-05-06T03:56:49.189Z,5.50
2019-05-06T03:59:23.341Z,4.83
2019-05-06T04:01:54.767Z,5.60
2019-05-06T04:04:25.369Z,5.00
2019-05-06T04:06:56.692Z,5.00
2019-05-06T04:09:28.552Z,3.00
2019-05-06T04:11:59.353Z,3.62
2019-05-06T04:14:34.045Z,4.78
2019-05-06T04:17:13.086Z,4.90
2019-05-06T04:19:45.461Z,5.30
2019-05-06T04:22:23.369Z,5.22
2019-05-06T04:24:54.141Z,5.05
2019-05-06T04:27:46.329Z,5.37
2019-05-06T04:30:17.747Z,4.85
2019-05-06T04:32:48.256Z,4.03
2019-05-06T04:35:22.755Z,4.55
2019-05-06T04:37:54.634Z,4.85
2019-05-06T04:40:25.254Z,4.30
2019-05-06T04:42:56.041Z,4.70
2019-05-06T04:45:26.502Z,4.37
2019-05-06T04:47:56.931Z,3.98
2019-05-06T04:50:27.345Z,4.30
2019-05-06T04:52:59.316Z,3.95
2019-05-06T04:55:30.029Z,4.67
2019-05-06T04:58:04.055Z,4.42
2019-05-06T05:00:36.817Z,4.35
2019-05-06T05:03:07.210Z,4.55
2019-05-06T05:05:37.741Z,4.58
2019-05-06T05:08:09.075Z,2.72
2019-05-06T05:10:43.162Z,3.77
2019-05-06T05:13:18.979Z,4.10
2019-05-06T05:16:02.136Z,5.00
2019-05-06T05:18:36.321Z,3.08
2019-05-06T05:21:06.993Z,4.05
2019-05-06T05:23:39.084Z,4.12
2019-05-06T05:26:11.983Z,4.50
2019-05-06T05:28:43.389Z,3.80
2019-05-06T05:31:13.827Z,4.35
2019-05-06T05:33:45.685Z,3.87
2019-05-06T05:36:16.258Z,3.75
2019-05-06T05:38:46.730Z,4.03
2019-05-06T05:41:17.236Z,4.00
2019-05-06T05:43:55.049Z,3.25
2019-05-06T05:46:25.610Z,3.98
2019-05-06T05:49:02.748Z,3.75
2019-05-06T05:51:32.650Z,4.60
2019-05-06T05:54:04.513Z,4.00
2019-05-06T05:56:35.060Z,4.08
2019-05-06T05:59:05.839Z,3.60
2019-05-06T06:01:36.296Z,3.30
2019-05-06T06:04:08.208Z,3.75
2019-05-06T06:06:38.725Z,3.65
2019-05-06T06:09:09.124Z,3.95
2019-05-06T06:11:42.113Z,4.20
2019-05-06T06:14:33.225Z,4.08
2019-05-06T06:17:05.358Z,3.92
2019-05-06T06:19:40.449Z,3.65
2019-05-06T06:22:17.032Z,3.00
2019-05-06T06:24:47.447Z,3.35
2019-05-06T06:27:18.429Z,3.90
2019-05-06T06:29:48.936Z,3.95
2019-05-06T06:32:22.854Z,3.80
2019-05-06T06:35:07.477Z,3.67
2019-05-06T06:37:38.839Z,3.52
2019-05-06T06:40:12.991Z,3.30
2019-05-06T06:42:42.871Z,4.45
2019-05-06T06:45:15.073Z,3.58
2019-05-06T06:47:45.557Z,3.30
2019-05-06T06:50:16.106Z,3.52
2019-05-06T06:52:46.607Z,3.77
2019-05-06T06:55:19.214Z,3.77
2019-05-06T06:57:52.777Z,4.30
2019-05-06T07:00:33.147Z,4.00
2019-05-06T07:03:12.260Z,3.83
2019-05-06T07:05:47.491Z,4.10
2019-05-06T07:08:32.150Z,3.33
2019-05-06T07:10:52.414Z,5.60
2019-05-06T07:13:23.273Z,5.92
2019-05-06T07:15:55.277Z,3.55
2019-05-06T07:18:25.677Z,3.80
2019-05-06T07:20:59.136Z,4.05
2019-05-06T07:23:32.691Z,4.00
2019-05-06T07:26:03.328Z,3.90
2019-05-06T07:28:34.893Z,3.98
2019-05-06T07:31:18.721Z,3.58
2019-05-06T07:33:37.415Z,3.62
2019-05-06T07:36:07.781Z,3.45
2019-05-06T07:38:40.006Z,3.80
2019-05-06T07:41:14.839Z,3.80
2019-05-06T07:43:53.021Z,4.42
2019-05-06T07:46:27.952Z,3.90
2019-05-06T07:48:58.376Z,3.77
2019-05-06T07:51:28.746Z,3.85
2019-05-06T07:53:59.156Z,3.52
2019-05-06T07:56:29.546Z,3.22
2019-05-06T07:59:09.244Z,3.92
2019-05-06T08:01:43.483Z,3.33
2019-05-06T08:04:12.728Z,3.55
2019-05-06T08:06:43.238Z,4.78
2019-05-06T08:09:13.709Z,3.92
2019-05-06T08:11:44.088Z,3.50
2019-05-06T08:14:14.518Z,3.55
2019-05-06T08:16:53.265Z,3.77
2019-05-06T08:19:23.875Z,3.45
2019-05-06T08:21:55.868Z,4.08
2019-05-06T08:24:26.278Z,3.62
2019-05-06T08:26:56.657Z,3.40
2019-05-06T08:29:27.157Z,3.90
2019-05-06T08:31:57.606Z,4.05
2019-05-06T08:34:28.026Z,3.77
2019-05-06T08:37:00.050Z,4.30
2019-05-06T08:39:32.157Z,3.85
2019-05-06T08:42:02.783Z,3.87
2019-05-06T08:44:35.974Z,3.52
2019-05-06T08:47:06.433Z,3.72
2019-05-06T08:49:42.276Z,3.92
2019-05-06T08:52:14.381Z,3.90
2019-05-06T08:54:47.424Z,3.40
2019-05-06T08:57:17.795Z,3.75
2019-05-06T08:59:48.212Z,2.58
2019-05-06T09:02:19.887Z,4.03
2019-05-06T09:04:51.891Z,4.00
2019-05-06T09:07:24.009Z,3.52
2019-05-06T09:09:54.599Z,3.33
2019-05-06T09:12:25.021Z,3.85
2019-05-06T09:14:55.485Z,3.90
2019-05-06T09:17:25.863Z,3.87
2019-05-06T09:19:56.352Z,3.50
2019-05-06T09:22:26.749Z,3.70
2019-05-06T09:24:57.235Z,3.83
2019-05-06T09:27:42.200Z,3.45
2019-05-06T09:30:14.468Z,4.00
2019-05-06T09:32:46.350Z,3.12
2019-05-06T09:35:18.321Z,3.52
2019-05-06T09:37:49.655Z,3.65
2019-05-06T09:40:22.782Z,3.12
2019-05-06T09:42:55.040Z,3.80
2019-05-06T09:45:25.572Z,3.80
2019-05-06T09:48:08.814Z,3.52
2019-05-06T09:50:46.130Z,3.58
2019-05-06T09:53:18.831Z,3.40
2019-05-06T09:55:56.518Z,3.90
2019-05-06T09:58:27.029Z,3.87
2019-05-06T10:00:59.043Z,3.75
2019-05-06T10:03:31.890Z,3.37
2019-05-06T10:06:02.706Z,3.30
2019-05-06T10:08:33.372Z,3.35
2019-05-06T10:11:10.413Z,3.08
2019-05-06T10:13:44.450Z,3.60
2019-05-06T10:16:15.131Z,3.37
2019-05-06T10:18:45.715Z,3.05
2019-05-06T10:21:17.549Z,3.65
2019-05-06T10:23:47.942Z,3.08
2019-05-06T10:26:18.536Z,3.22
2019-05-06T10:28:52.299Z,3.15
2019-05-06T10:31:23.746Z,3.52
2019-05-06T10:34:05.243Z,2.80
2019-05-06T10:36:44.345Z,3.58
2019-05-06T10:39:16.749Z,2.85
2019-05-06T10:41:50.069Z,3.02
2019-05-06T10:44:23.429Z,3.50
2019-05-06T10:46:55.194Z,2.87
2019-05-06T10:49:25.626Z,3.10
2019-05-06T10:52:02.195Z,2.72
2019-05-06T10:54:32.813Z,3.05
2019-05-06T10:57:04.838Z,2.90
2019-05-06T10:59:35.272Z,2.98
2019-05-06T11:02:13.961Z,2.60
2019-05-06T11:04:44.518Z,2.50
2019-05-06T11:07:28.146Z,2.55
2019-05-06T11:09:49.293Z,3.27
2019-05-06T11:12:22.006Z,2.33
2019-05-06T11:14:53.248Z,3.27
2019-05-06T11:17:24.691Z,2.72
2019-05-06T11:19:55.101Z,3.05
2019-05-06T11:22:25.538Z,2.75
2019-05-06T11:24:55.971Z,2.55
2019-05-06T11:27:32.023Z,2.70
2019-05-06T11:30:02.285Z,2.85
2019-05-06T11:32:37.124Z,1.60
2019-05-06T11:35:12.342Z,2.90
2019-05-06T11:37:53.887Z,2.15
2019-05-06T11:40:23.463Z,2.47
2019-05-06T11:42:54.092Z,2.60
2019-05-06T11:45:24.560Z,2.17
2019-05-06T11:47:55.831Z,3.02
2019-05-06T11:50:26.855Z,1.92
2019-05-06T11:52:57.923Z,2.42
2019-05-06T11:55:33.828Z,2.58
2019-05-06T11:58:02.555Z,2.35
2019-05-06T12:00:35.843Z,2.12
2019-05-06T12:03:06.534Z,2.90
2019-05-06T12:05:38.271Z,2.60
2019-05-06T12:08:08.645Z,2.33
2019-05-06T12:10:39.129Z,2.35
2019-05-06T12:13:12.087Z,1.90
2019-05-06T12:15:41.652Z,2.30
2019-05-06T12:18:12.489Z,2.08
2019-05-06T12:20:43.159Z,2.52
2019-05-06T12:23:15.567Z,2.12
2019-05-06T12:25:46.236Z,2.60
2019-05-06T12:28:17.621Z,2.40
2019-05-06T12:30:48.241Z,2.00
2019-05-06T12:33:26.430Z,2.35
2019-05-06T12:35:58.398Z,2.60
2019-05-06T12:38:31.177Z,2.50
2019-05-06T12:41:03.340Z,2.80
2019-05-06T12:43:35.617Z,2.27
2019-05-06T12:46:07.587Z,2.05
2019-05-06T12:48:44.002Z,2.40
2019-05-06T12:51:14.868Z,7.78
2019-05-06T12:53:46.861Z,2.70
2019-05-06T12:56:18.745Z,2.72
2019-05-06T12:58:49.437Z,3.25
2019-05-06T13:01:19.936Z,2.10
2019-05-06T13:03:52.414Z,2.17
2019-05-06T13:06:26.398Z,2.90
2019-05-06T13:09:01.304Z,2.52
2019-05-06T13:11:27.951Z,2.40
2019-05-06T13:14:00.816Z,2.75
2019-05-06T13:16:33.202Z,2.20
2019-05-06T13:19:03.364Z,2.75
2019-05-06T13:21:34.238Z,3.08
2019-05-06T13:24:08.761Z,2.60
2019-05-06T13:26:39.419Z,2.42
2019-05-06T13:29:12.988Z,2.58
2019-05-06T13:31:45.229Z,2.67
2019-05-06T13:34:19.750Z,3.15
2019-05-06T13:36:53.008Z,2.83
2019-05-06T13:39:23.899Z,2.75
2019-05-06T13:41:54.447Z,2.80
2019-05-06T13:44:24.917Z,2.83
2019-05-06T13:46:56.774Z,2.40
2019-05-06T13:49:28.776Z,2.52
2019-05-06T13:52:03.915Z,2.90
2019-05-06T13:54:33.031Z,2.50
2019-05-06T13:57:03.780Z,2.95
2019-05-06T13:59:35.559Z,3.02
2019-05-06T14:02:08.392Z,3.15
2019-05-06T14:04:39.114Z,2.92
2019-05-06T14:07:13.054Z,2.77
2019-05-06T14:09:43.768Z,3.12
2019-05-06T14:12:14.346Z,2.92
2019-05-06T14:14:44.863Z,2.65
2019-05-06T14:17:15.350Z,2.90
2019-05-06T14:19:45.750Z,2.90
2019-05-06T14:22:16.252Z,3.10
2019-05-06T14:24:54.562Z,2.42
2019-05-06T14:27:26.507Z,3.37
2019-05-06T14:29:59.955Z,2.90
2019-05-06T14:32:32.367Z,2.62
2019-05-06T14:35:02.500Z,2.83
2019-05-06T14:37:33.323Z,11.43
2019-05-06T14:40:06.709Z,4.42
2019-05-06T14:42:37.083Z,3.40
2019-05-06T14:45:08.703Z,3.27
2019-05-06T14:47:42.326Z,3.45
2019-05-06T14:50:14.935Z,3.45
2019-05-06T14:52:45.612Z,3.05
2019-05-06T14:55:18.846Z,3.35
2019-05-06T14:57:49.262Z,2.87
2019-05-06T15:00:22.881Z,3.02
2019-05-06T15:02:53.275Z,3.22
2019-05-06T15:05:23.982Z,3.33
2019-05-06T15:07:55.875Z,2.80
2019-05-06T15:10:26.638Z,3.12
2019-05-06T15:12:57.194Z,2.95
2019-05-06T15:15:27.703Z,3.25
2019-05-06T15:17:58.064Z,2.95
2019-05-06T15:20:28.496Z,3.02
2019-05-06T15:22:59.232Z,3.58
2019-05-06T15:25:32.695Z,4.17
2019-05-06T15:28:03.277Z,3.30
2019-05-06T15:30:35.266Z,2.87
2019-05-06T15:33:07.233Z,3.58
2019-05-06T15:35:45.213Z,3.52
2019-05-06T15:38:21.975Z,3.30
2019-05-06T15:40:52.657Z,3.10
2019-05-06T15:43:24.723Z,3.20
2019-05-06T15:45:55.215Z,3.12
2019-05-06T15:48:25.584Z,3.30
2019-05-06T15:50:57.583Z,3.12
2019-05-06T15:53:28.034Z,3.08
2019-05-06T15:55:58.435Z,3.50
2019-05-06T15:58:28.814Z,3.30
2019-05-06T16:00:59.706Z,3.15
2019-05-06T16:03:33.429Z,3.05
2019-05-06T16:06:04.584Z,3.52
2019-05-06T16:08:34.983Z,3.15
2019-05-06T16:11:05.387Z,3.55
2019-05-06T16:13:35.846Z,3.27
2019-05-06T16:16:07.040Z,3.25
2019-05-06T16:18:37.797Z,4.25
2019-05-06T16:21:09.094Z,3.60
2019-05-06T16:23:50.236Z,3.62
2019-05-06T16:26:22.989Z,3.08
2019-05-06T16:28:53.542Z,3.10
2019-05-06T16:31:24.715Z,2.95
2019-05-06T16:33:57.477Z,3.25
2019-05-06T16:36:28.147Z,3.25
2019-05-06T16:38:58.593Z,3.20
2019-05-06T16:41:29.000Z,2.67
2019-05-06T16:44:02.177Z,2.85
2019-05-06T16:46:34.182Z,3.22
2019-05-06T16:49:04.932Z,2.80
2019-05-06T16:51:35.411Z,3.22
2019-05-06T16:54:07.411Z,6.60
2019-05-06T16:56:44.681Z,3.40
2019-05-06T16:59:15.210Z,3.10
2019-05-06T17:01:46.441Z,3.37
2019-05-06T17:04:27.496Z,3.05
2019-05-06T17:06:57.943Z,2.50
2019-05-06T17:09:28.385Z,3.55
2019-05-06T17:11:59.078Z,3.50
2019-05-06T17:14:29.532Z,2.85
2019-05-06T17:17:00.054Z,3.25
2019-05-06T17:19:32.421Z,3.22
2019-05-06T17:22:03.169Z,3.02
2019-05-06T17:24:35.112Z,3.30
2019-05-06T17:27:05.835Z,3.62
2019-05-06T17:29:37.826Z,3.08
2019-05-06T17:32:13.923Z,3.20
2019-05-06T17:34:57.486Z,3.60
2019-05-06T17:37:45.259Z,3.80
2019-05-06T17:40:17.619Z,3.65
2019-05-06T17:42:49.476Z,3.55
2019-05-06T17:45:37.734Z,3.40
2019-05-06T17:48:09.704Z,3.60
2019-05-06T17:50:42.017Z,3.27
2019-05-06T17:53:14.730Z,3.65
2019-05-06T17:55:46.620Z,3.87
2019-05-06T17:58:17.143Z,4.15
2019-05-06T18:00:49.196Z,3.85
2019-05-06T18:03:19.575Z,4.03
2019-05-06T18:05:49.995Z,4.15
2019-05-06T18:08:20.370Z,3.87
2019-05-06T18:10:52.136Z,4.15
2019-05-06T18:13:22.748Z,3.90
2019-05-06T18:15:53.216Z,3.52
2019-05-06T18:18:28.415Z,3.98
2019-05-06T18:20:55.790Z,3.70
2019-05-06T18:23:26.295Z,3.58
2019-05-06T18:25:56.752Z,3.77
2019-05-06T18:28:27.146Z,4.00
2019-05-06T18:30:57.543Z,4.00
2019-05-06T18:33:29.499Z,4.28
2019-05-06T18:35:59.881Z,4.15
2019-05-06T18:38:32.929Z,3.72
2019-05-06T18:41:03.883Z,3.47
2019-05-06T18:43:34.388Z,3.58
2019-05-06T18:46:06.245Z,4.47
2019-05-06T18:48:36.730Z,4.30
2019-05-06T18:51:07.170Z,4.70
2019-05-06T18:53:38.518Z,3.80
2019-05-06T18:56:09.181Z,4.00
2019-05-06T18:58:39.754Z,4.20
2019-05-06T19:01:10.340Z,4.22
2019-05-06T19:03:43.032Z,4.33
2019-05-06T19:06:13.804Z,4.40
2019-05-06T19:08:45.802Z,4.17
2019-05-06T19:11:17.515Z,4.10
2019-05-06T19:13:47.958Z,4.50
2019-05-06T19:16:18.339Z,4.03
2019-05-06T19:18:52.174Z,4.33
2019-05-06T19:21:24.450Z,4.35
2019-05-06T19:23:54.923Z,4.53
2019-05-06T19:26:27.070Z,3.92
2019-05-06T19:28:57.761Z,4.20
2019-05-06T19:31:28.229Z,4.42
2019-05-06T19:33:58.700Z,4.37
2019-05-06T19:36:29.249Z,4.87
2019-05-06T19:38:59.614Z,3.72
2019-05-06T19:41:30.067Z,4.67
2019-05-06T19:44:02.117Z,3.75
2019-05-06T19:46:33.106Z,4.35
2019-05-06T19:49:04.783Z,3.95
2019-05-06T19:51:35.255Z,3.92
2019-05-06T19:54:06.707Z,3.92
2019-05-06T19:56:37.128Z,3.87
2019-05-06T19:59:07.630Z,3.62
2019-05-06T20:01:38.007Z,3.72
2019-05-06T20:04:08.449Z,4.40
2019-05-06T20:06:40.401Z,4.35
2019-05-06T20:09:19.104Z,4.37
2019-05-06T20:11:51.945Z,4.05
2019-05-06T20:14:22.436Z,4.28
2019-05-06T20:16:52.991Z,3.87
2019-05-06T20:19:30.850Z,4.15
2019-05-06T20:21:55.720Z,4.05
2019-05-06T20:24:26.107Z,4.87
2019-05-06T20:26:56.491Z,3.80
2019-05-06T20:29:26.917Z,4.62
2019-05-06T20:31:57.333Z,4.62
2019-05-06T20:34:27.743Z,4.40
2019-05-06T20:36:58.140Z,4.50
2019-05-06T20:39:28.696Z,4.50
2019-05-06T20:41:59.303Z,4.05
2019-05-06T20:44:29.764Z,4.37
2019-05-06T20:47:03.029Z,4.40
2019-05-06T20:49:34.758Z,4.10
2019-05-06T20:52:05.135Z,4.67
2019-05-06T20:54:35.690Z,4.58
2019-05-06T20:57:06.069Z,4.25
2019-05-06T20:59:36.538Z,4.30
2019-05-06T21:02:07.072Z,4.45
2019-05-06T21:04:37.436Z,4.70
2019-05-06T21:07:07.906Z,4.17
2019-05-06T21:09:38.301Z,4.08
2019-05-06T21:12:08.815Z,4.45
2019-05-06T21:14:39.254Z,4.25
2019-05-06T21:17:12.115Z,4.10
2019-05-06T21:19:41.734Z,3.95
2019-05-06T21:22:13.534Z,4.03
2019-05-06T21:24:44.104Z,4.33
2019-05-06T21:27:14.637Z,4.37
2019-05-06T21:29:46.586Z,3.90
2019-05-06T21:32:17.001Z,4.17
2019-05-06T21:34:47.386Z,4.72
2019-05-06T21:37:18.613Z,5.12
2019-05-06T21:39:48.998Z,4.80
2019-05-06T21:42:19.445Z,4.25
2019-05-06T21:44:52.152Z,4.60
2019-05-06T21:47:22.232Z,4.30
2019-05-06T21:49:52.893Z,4.50
2019-05-06T21:52:36.252Z,4.30
2019-05-06T21:54:57.353Z,4.53
2019-05-06T21:57:27.798Z,4.58
2019-05-06T21:59:58.327Z,4.30
2019-05-06T22:02:28.845Z,5.15
2019-05-06T22:05:02.782Z,4.85
2019-05-06T22:07:35.730Z,5.08
2019-05-06T22:10:08.773Z,4.33
2019-05-06T22:12:39.314Z,5.05
2019-05-06T22:15:11.748Z,4.97
2019-05-06T22:17:42.909Z,4.87
2019-05-06T22:20:14.874Z,4.87
2019-05-06T22:22:45.778Z,4.85
2019-05-06T22:25:16.383Z,5.25
2019-05-06T22:27:48.266Z,4.58
2019-05-06T22:30:18.859Z,4.92
2019-05-06T22:32:49.337Z,5.12
2019-05-06T22:35:19.715Z,5.15
2019-05-06T22:37:52.740Z,5.00
2019-05-06T22:40:23.884Z,5.60
2019-05-06T22:42:54.324Z,4.85
2019-05-06T22:45:26.266Z,5.10
2019-05-06T22:47:56.836Z,5.15
2019-05-06T22:50:28.952Z,5.08
2019-05-06T22:52:59.329Z,4.35
2019-05-06T22:55:29.825Z,5.05
2019-05-06T22:58:02.407Z,5.10
2019-05-06T23:00:33.850Z,4.85
2019-05-06T23:03:07.302Z,4.50
2019-05-06T23:05:37.844Z,4.80
2019-05-06T23:08:08.537Z,4.53
2019-05-06T23:10:38.959Z,4.92
2019-05-06T23:13:09.411Z,5.22
2019-05-06T23:15:41.897Z,5.20
2019-05-06T23:18:11.923Z,5.60
2019-05-06T23:20:43.098Z,5.58
2019-05-06T23:23:13.996Z,5.15
2019-05-06T23:25:46.210Z,5.80
2019-05-06T23:28:18.077Z,5.35
2019-05-06T23:30:52.362Z,5.50
2019-05-06T23:33:24.338Z,5.70
2019-05-06T23:35:54.777Z,5.92
2019-05-06T23:39:02.003Z,5.72
2019-05-06T23:42:09.033Z,6.05
2019-05-06T23:45:16.028Z,6.28
2019-05-06T23:48:23.208Z,6.28
2019-05-06T23:51:29.244Z,6.78
2019-05-06T23:54:36.231Z,5.97
2019-05-06T23:57:05.458Z,6.33
2019-05-06T23:59:35.843Z,6.90
